»·PEaware :: N871EU KAVX-KSAN

N871EU :: KAVX-KSAN

FLIGHT INFORMATION

Flight Status: Arrived
Operator: Privately registered:
United States
More flights under this callsign
Pilot: Arnold Y. (19526)
Aircraft: BEECH AIRCRAFT SUPER KING AIR 350
(B350)
More flights by this aircraft type
Origin: KAVX Catalina
United States
Destination: KSAN San Diego Intl-Lindbergh
United States
More flights between these airports :: More routes between these airports
Route: SXC V208 LAX118 CARDI MZB320 MZB
File this flight plan on PilotEdge
Remarks: TEC
Altitude:
(Current/Filed)
9,000ft
Speed:
(Current/Filed)
300kts
Departed: 09-Jan-20 07:28 PM
Arrived: 09-Jan-20 08:03 PM
Distance/Time
Traveled:
74nm/0:35
Distance/Time
To Go:
Arrived

Flight Plot

Page will automatically refresh every two minutes.


Map Options




Map Legend


Flown Route
Filed Route
Departure Airport
Arrival Airport
Navaid (VOR, NDB)
Fix

Horizontal Profiles

Position Reports

Time Latitude Longitude Heading Altitude Ground
Speed
09-Jan-20 19:11 33.403230 -118.415625 17 1571ft 0kts
09-Jan-20 19:12 33.403230 -118.415625 17 1571ft 0kts
09-Jan-20 19:13 33.403230 -118.415625 17 1571ft 0kts
09-Jan-20 19:14 33.403230 -118.415625 17 1571ft 0kts
09-Jan-20 19:15 33.403230 -118.415625 17 1571ft 0kts
09-Jan-20 19:16 33.403230 -118.415625 17 1571ft 0kts
09-Jan-20 19:17 33.403230 -118.415625 17 1571ft 0kts
09-Jan-20 19:18 33.403230 -118.415625 17 1571ft 0kts
09-Jan-20 19:19 33.403230 -118.415625 17 1571ft 0kts
09-Jan-20 19:20 33.403230 -118.415625 17 1571ft 0kts
09-Jan-20 19:21 33.403230 -118.415625 17 1571ft 0kts
09-Jan-20 19:22 33.403704 -118.415269 40 1571ft 10kts
09-Jan-20 19:23 33.406610 -118.412363 54 1571ft 16kts
09-Jan-20 19:24 33.407116 -118.411514 54 1571ft 0kts
09-Jan-20 19:25 33.407116 -118.411514 54 1571ft 0kts
09-Jan-20 19:26 33.407367 -118.411800 236 1571ft 9kts
09-Jan-20 19:27 33.393331 -118.434011 235 2437ft 160kts
09-Jan-20 19:28 33.373658 -118.427605 56 5101ft 153kts
09-Jan-20 19:29 33.370050 -118.370776 97 6991ft 187kts
09-Jan-20 19:30 33.360845 -118.309089 93 9043ft 207kts
09-Jan-20 19:31 33.350018 -118.227480 95 9008ft 272kts
09-Jan-20 19:32 33.337825 -118.137052 95 8995ft 273kts
09-Jan-20 19:33 33.324414 -118.047905 96 8982ft 271kts
09-Jan-20 19:34 33.312489 -117.959343 94 8988ft 268kts
09-Jan-20 19:35 33.301350 -117.871076 94 8994ft 267kts
09-Jan-20 19:36 33.290193 -117.783425 94 8999ft 266kts
09-Jan-20 19:37 33.278126 -117.695931 96 9000ft 266kts
09-Jan-20 19:38 33.264642 -117.608575 96 8992ft 267kts
09-Jan-20 19:39 33.225428 -117.532904 130 8972ft 275kts
09-Jan-20 19:40 33.172190 -117.466656 130 8970ft 275kts
09-Jan-20 19:41 33.113230 -117.408949 152 8968ft 279kts
09-Jan-20 19:42 33.044137 -117.370663 150 7644ft 268kts
09-Jan-20 19:43 32.977781 -117.333759 150 6965ft 259kts
09-Jan-20 19:44 32.911728 -117.297059 152 6971ft 265kts
09-Jan-20 19:45 32.845145 -117.260233 154 6958ft 255kts
09-Jan-20 19:46 32.783390 -117.225571 150 6961ft 232kts
09-Jan-20 19:47 32.738648 -117.179786 85 6974ft 200kts
09-Jan-20 19:48 32.748611 -117.119007 71 6966ft 179kts
09-Jan-20 19:49 32.762300 -117.057481 71 5820ft 207kts
09-Jan-20 19:50 32.778115 -116.990244 70 4959ft 197kts
09-Jan-20 19:51 32.791135 -116.930916 70 4968ft 174kts
09-Jan-20 19:52 32.780125 -116.881935 140 4987ft 174kts
09-Jan-20 19:53 32.741335 -116.847671 140 4979ft 171kts
09-Jan-20 19:54 32.700797 -116.813184 140 4983ft 185kts
09-Jan-20 19:55 32.663437 -116.831069 260 5001ft 184kts
09-Jan-20 19:56 32.663258 -116.894464 284 4021ft 204kts
09-Jan-20 19:57 32.676265 -116.954151 288 3628ft 182kts
09-Jan-20 19:58 32.690574 -117.013081 282 2773ft 194kts
09-Jan-20 19:59 32.704271 -117.069164 282 2023ft 166kts
09-Jan-20 20:00 32.714872 -117.112737 282 1474ft 130kts
09-Jan-20 20:01 32.724967 -117.154230 283 703ft 125kts
09-Jan-20 20:02 32.732975 -117.187293 286 20ft 27kts
09-Jan-20 20:03 32.734098 -117.186887 80 20ft 13kts
09-Jan-20 20:04 32.734226 -117.185260 175 20ft 0kts
09-Jan-20 20:05 32.734226 -117.185260 175 20ft 0kts
09-Jan-20 20:06 32.734226 -117.185260 175 20ft 0kts

Navigation Log

Ident Type
Flight plan parsing failed, navigation log unavailable